createdAt,value
2023-01-21T00:00:13.677Z,88.86
2023-01-21T00:02:15.200Z,88.85
2023-01-21T00:04:16.776Z,88.67
2023-01-21T00:06:18.306Z,88.73
2023-01-21T00:08:20.037Z,88.75
2023-01-21T00:10:21.492Z,88.61
2023-01-21T00:12:22.975Z,88.73
2023-01-21T00:14:24.598Z,88.89
2023-01-21T00:16:26.101Z,88.72
2023-01-21T00:18:29.946Z,88.63
2023-01-21T00:20:31.722Z,88.65
2023-01-21T00:22:33.478Z,88.59
2023-01-21T00:24:34.980Z,88.77
2023-01-21T00:26:36.488Z,88.47
2023-01-21T00:28:38.663Z,88.69
2023-01-21T00:30:41.588Z,88.59
2023-01-21T00:32:43.108Z,88.52
2023-01-21T00:34:44.585Z,88.49
2023-01-21T00:36:46.031Z,88.51
2023-01-21T00:38:51.063Z,88.48
2023-01-21T00:40:52.548Z,88.35
2023-01-21T00:42:53.987Z,88.26
2023-01-21T00:44:57.452Z,88.20
2023-01-21T00:46:58.946Z,88.27
2023-01-21T00:49:00.432Z,88.33
2023-01-21T00:51:02.311Z,88.39
2023-01-21T00:53:03.781Z,88.60
2023-01-21T00:55:05.887Z,88.30
2023-01-21T00:57:08.456Z,88.25
2023-01-21T00:59:10.085Z,88.46
2023-01-21T01:01:14.770Z,88.58
2023-01-21T01:03:16.485Z,88.42
2023-01-21T01:05:19.425Z,89.01
2023-01-21T01:07:20.878Z,89.50
2023-01-21T01:09:22.335Z,89.79
2023-01-21T01:11:26.712Z,89.75
2023-01-21T01:13:28.587Z,90.18
2023-01-21T01:15:30.048Z,90.41
2023-01-21T01:17:31.584Z,90.40
2023-01-21T01:19:33.058Z,91.12
2023-01-21T01:21:34.536Z,91.23
2023-01-21T01:23:36.620Z,91.18
2023-01-21T01:25:38.141Z,91.78
2023-01-21T01:27:39.615Z,92.32
2023-01-21T01:29:41.091Z,92.65
2023-01-21T01:31:44.211Z,92.86
2023-01-21T01:33:46.608Z,93.54
2023-01-21T01:35:48.879Z,93.72
2023-01-21T01:37:50.362Z,93.87
2023-01-21T01:39:51.821Z,93.96
2023-01-21T01:41:53.906Z,93.37
2023-01-21T01:44:04.634Z,93.94
2023-01-21T01:46:06.243Z,93.96
2023-01-21T01:48:10.067Z,94.28
2023-01-21T01:50:18.143Z,94.60
2023-01-21T01:52:21.296Z,95.03
2023-01-21T01:54:32.307Z,94.84
2023-01-21T01:56:37.525Z,95.20
2023-01-21T01:58:39.914Z,95.32
2023-01-21T02:00:41.483Z,95.50
2023-01-21T02:02:43.939Z,95.75
2023-01-21T02:04:56.846Z,95.99
2023-01-21T02:06:58.454Z,96.61
2023-01-21T02:09:00.110Z,96.40
2023-01-21T02:11:02.732Z,96.81
2023-01-21T02:13:04.616Z,96.82
2023-01-21T02:15:07.082Z,96.76
2023-01-21T02:17:36.619Z,97.21
2023-01-21T02:19:46.884Z,96.67
2023-01-21T02:22:00.509Z,96.79
2023-01-21T02:24:13.840Z,97.23
2023-01-21T02:26:27.122Z,97.37
2023-01-21T02:28:59.405Z,97.74
2023-01-21T02:31:25.360Z,97.49
2023-01-21T02:34:01.562Z,97.62
2023-01-21T02:36:21.456Z,97.71
2023-01-21T02:38:31.827Z,97.88
2023-01-21T02:40:44.610Z,97.65
2023-01-21T02:42:47.274Z,98.02
2023-01-21T02:44:56.615Z,97.78
2023-01-21T02:47:16.670Z,97.68
2023-01-21T02:49:31.758Z,98.02
2023-01-21T02:51:33.245Z,98.32
2023-01-21T02:53:36.441Z,98.42
2023-01-21T02:55:38.517Z,98.30
2023-01-21T02:57:51.015Z,98.59
2023-01-21T02:59:55.517Z,98.21
2023-01-21T03:02:12.185Z,98.93
2023-01-21T03:04:31.853Z,98.63
2023-01-21T03:06:43.804Z,98.43
2023-01-21T03:08:54.085Z,98.31
2023-01-21T03:11:31.101Z,98.90
2023-01-21T03:13:59.458Z,99.01
2023-01-21T03:16:20.467Z,99.06
2023-01-21T03:18:29.884Z,98.89
2023-01-21T03:20:38.206Z,99.21
2023-01-21T03:22:40.576Z,99.07
2023-01-21T03:24:46.531Z,99.04
2023-01-21T03:26:52.257Z,99.00
2023-01-21T03:28:58.834Z,99.14
2023-01-21T03:31:07.816Z,99.22
2023-01-21T03:33:12.738Z,98.99
2023-01-21T03:35:36.515Z,99.05
2023-01-21T03:37:52.940Z,99.32
2023-01-21T03:40:15.602Z,99.03
2023-01-21T03:42:17.825Z,99.53
2023-01-21T03:44:19.454Z,99.13
2023-01-21T03:46:44.820Z,99.05
2023-01-21T03:48:57.420Z,99.55
2023-01-21T03:51:04.683Z,99.30
2023-01-21T03:53:07.342Z,99.28
2023-01-21T03:55:10.237Z,99.48
2023-01-21T03:57:11.728Z,99.14
2023-01-21T03:59:13.444Z,98.89
2023-01-21T04:01:15.016Z,99.42
2023-01-21T04:03:16.523Z,99.18
2023-01-21T04:05:18.068Z,99.06
2023-01-21T04:07:19.815Z,99.08
2023-01-21T04:09:21.284Z,99.01
2023-01-21T04:11:22.778Z,98.78
2023-01-21T04:13:24.286Z,99.07
2023-01-21T04:15:25.821Z,98.88
2023-01-21T04:17:28.743Z,98.58
2023-01-21T04:19:30.261Z,98.93
2023-01-21T04:21:31.944Z,98.96
2023-01-21T04:23:33.419Z,98.56
2023-01-21T04:25:34.878Z,99.00
2023-01-21T04:27:36.333Z,98.76
2023-01-21T04:29:37.858Z,98.97
2023-01-21T04:31:39.373Z,98.64
2023-01-21T04:33:40.899Z,98.84
2023-01-21T04:35:42.375Z,98.76
2023-01-21T04:37:43.817Z,98.87
2023-01-21T04:39:45.337Z,98.80
2023-01-21T04:41:46.847Z,99.12
2023-01-21T04:43:48.311Z,98.81
2023-01-21T04:45:50.224Z,98.60
2023-01-21T04:47:51.742Z,98.93
2023-01-21T04:49:53.570Z,98.77
2023-01-21T04:51:55.108Z,98.59
2023-01-21T04:53:56.634Z,98.80
2023-01-21T04:55:58.200Z,98.79
2023-01-21T04:57:59.667Z,99.11
2023-01-21T05:00:01.192Z,98.95
2023-01-21T05:02:02.799Z,99.25
2023-01-21T05:04:04.506Z,99.01
2023-01-21T05:06:06.142Z,98.91
2023-01-21T05:08:07.898Z,98.74
2023-01-21T05:10:16.203Z,98.94
2023-01-21T05:12:17.875Z,98.78
2023-01-21T05:14:19.398Z,98.95
2023-01-21T05:16:20.980Z,99.15
2023-01-21T05:18:22.479Z,99.67
2023-01-21T05:20:24.219Z,99.49
2023-01-21T05:22:25.709Z,99.42
2023-01-21T05:24:27.222Z,99.92
2023-01-21T05:26:28.663Z,99.93
2023-01-21T05:28:30.207Z,100.00
2023-01-21T05:30:31.788Z,100.00
2023-01-21T05:32:33.267Z,100.00
2023-01-21T05:34:34.724Z,100.00
2023-01-21T05:36:36.287Z,100.00
2023-01-21T05:38:37.744Z,100.00
2023-01-21T05:40:39.212Z,100.00
2023-01-21T05:42:40.869Z,100.00
2023-01-21T05:44:42.308Z,100.00
2023-01-21T05:46:43.801Z,100.00
2023-01-21T05:48:45.308Z,100.00
2023-01-21T05:50:47.918Z,100.00
2023-01-21T05:52:49.419Z,100.00
2023-01-21T05:55:01.234Z,100.00
2023-01-21T05:57:03.857Z,100.00
2023-01-21T05:59:05.345Z,100.00
2023-01-21T06:01:06.865Z,100.00
2023-01-21T06:03:08.353Z,100.00
2023-01-21T06:05:09.803Z,100.00
2023-01-21T06:07:11.316Z,100.00
2023-01-21T06:09:12.829Z,100.00
2023-01-21T06:11:14.283Z,100.00
2023-01-21T06:13:16.524Z,100.00
2023-01-21T06:15:18.778Z,100.00
2023-01-21T06:17:20.290Z,100.00
2023-01-21T06:19:21.756Z,100.00
2023-01-21T06:21:23.227Z,100.00
2023-01-21T06:23:24.696Z,100.00
2023-01-21T06:25:26.419Z,100.00
2023-01-21T06:27:27.920Z,100.00
2023-01-21T06:29:29.385Z,100.00
2023-01-21T06:31:31.066Z,100.00
2023-01-21T06:33:32.605Z,100.00
2023-01-21T06:35:34.151Z,100.00
2023-01-21T06:37:35.660Z,100.00
2023-01-21T06:39:37.577Z,100.00
2023-01-21T06:41:39.429Z,100.00
2023-01-21T06:43:40.891Z,100.00
2023-01-21T06:45:42.384Z,100.00
2023-01-21T06:47:44.527Z,100.00
2023-01-21T06:49:45.958Z,100.00
2023-01-21T06:51:47.484Z,100.00
2023-01-21T06:53:48.934Z,100.00
2023-01-21T06:55:50.413Z,100.00
2023-01-21T06:57:51.867Z,100.00
2023-01-21T06:59:53.305Z,100.00
2023-01-21T07:01:55.176Z,100.00
2023-01-21T07:03:56.758Z,100.00
2023-01-21T07:05:58.305Z,100.00
2023-01-21T07:07:59.802Z,100.00
2023-01-21T07:10:01.323Z,100.00
2023-01-21T07:12:02.768Z,100.00
2023-01-21T07:14:04.255Z,100.00
2023-01-21T07:16:07.048Z,100.00
2023-01-21T07:18:08.689Z,100.00
2023-01-21T07:20:12.372Z,100.00
2023-01-21T07:22:13.921Z,100.00
2023-01-21T07:24:15.358Z,100.00
2023-01-21T07:26:16.816Z,100.00
2023-01-21T07:28:18.304Z,100.00
2023-01-21T07:30:21.099Z,100.00
2023-01-21T07:32:22.646Z,100.00
2023-01-21T07:34:24.123Z,100.00
2023-01-21T07:36:26.631Z,100.00
2023-01-21T07:38:28.247Z,100.00
2023-01-21T07:40:29.713Z,100.00
2023-01-21T07:42:31.157Z,100.00
2023-01-21T07:44:32.655Z,100.00
2023-01-21T07:46:34.890Z,100.00
2023-01-21T07:48:36.447Z,100.00
2023-01-21T07:50:38.086Z,100.00
2023-01-21T07:52:39.579Z,100.00
2023-01-21T07:54:41.094Z,99.83
2023-01-21T07:56:42.548Z,100.00
2023-01-21T07:58:44.336Z,99.29
2023-01-21T08:00:45.793Z,99.39
2023-01-21T08:02:50.648Z,99.46
2023-01-21T08:04:52.133Z,99.43
2023-01-21T08:06:56.914Z,99.07
2023-01-21T08:08:58.455Z,99.31
2023-01-21T08:11:00.048Z,99.57
2023-01-21T08:13:02.001Z,99.58
2023-01-21T08:15:03.743Z,99.37
2023-01-21T08:17:05.227Z,99.16
2023-01-21T08:19:06.802Z,98.34
2023-01-21T08:21:08.252Z,97.34
2023-01-21T08:23:09.720Z,96.06
2023-01-21T08:25:11.711Z,95.25
2023-01-21T08:27:13.310Z,93.93
2023-01-21T08:29:15.159Z,94.12
2023-01-21T08:31:16.693Z,93.92
2023-01-21T08:33:18.284Z,94.23
2023-01-21T08:35:19.765Z,94.00
2023-01-21T08:37:21.253Z,94.26
2023-01-21T08:39:22.766Z,95.08
2023-01-21T08:41:25.466Z,94.81
2023-01-21T08:43:27.321Z,95.03
2023-01-21T08:45:29.863Z,94.80
2023-01-21T08:47:31.389Z,95.22
2023-01-21T08:49:32.831Z,94.79
2023-01-21T08:51:34.545Z,94.77
2023-01-21T08:53:36.058Z,93.63
2023-01-21T08:55:37.503Z,92.73
2023-01-21T08:57:38.978Z,90.65
2023-01-21T08:59:40.429Z,89.27
2023-01-21T09:01:42.455Z,88.20
2023-01-21T09:03:43.911Z,87.46
2023-01-21T09:05:46.421Z,87.09
2023-01-21T09:07:47.935Z,87.03
2023-01-21T09:09:49.973Z,86.86
2023-01-21T09:11:52.535Z,86.65
2023-01-21T09:13:54.060Z,86.14
2023-01-21T09:15:55.536Z,86.33
2023-01-21T09:17:56.982Z,86.55
2023-01-21T09:19:58.433Z,85.93
2023-01-21T09:21:59.900Z,85.90
2023-01-21T09:24:02.046Z,86.04
2023-01-21T09:26:07.539Z,85.77
2023-01-21T09:28:09.004Z,85.92
2023-01-21T09:30:10.806Z,85.74
2023-01-21T09:32:12.407Z,85.55
2023-01-21T09:34:13.962Z,85.54
2023-01-21T09:36:21.500Z,85.59
2023-01-21T09:38:24.281Z,85.73
2023-01-21T09:40:25.805Z,85.93
2023-01-21T09:42:32.013Z,85.97
2023-01-21T09:44:44.661Z,85.42
2023-01-21T09:46:56.081Z,85.44
2023-01-21T09:49:00.870Z,85.41
2023-01-21T09:51:07.015Z,85.75
2023-01-21T09:53:27.338Z,85.72
2023-01-21T09:55:40.095Z,85.64
2023-01-21T09:58:05.601Z,85.37
2023-01-21T10:00:22.127Z,85.87
2023-01-21T10:02:30.630Z,85.52
2023-01-21T10:04:50.270Z,85.92
2023-01-21T10:06:54.740Z,85.29
2023-01-21T10:08:59.192Z,85.28
2023-01-21T10:11:34.802Z,85.72
2023-01-21T10:14:08.765Z,85.43
2023-01-21T10:16:35.386Z,86.01
2023-01-21T10:18:40.585Z,85.46
2023-01-21T10:21:14.224Z,85.68
2023-01-21T10:23:47.909Z,85.02
2023-01-21T10:25:50.423Z,84.86
2023-01-21T10:27:53.140Z,85.07
2023-01-21T10:30:02.196Z,85.45
2023-01-21T10:32:06.949Z,85.77
2023-01-21T10:34:15.580Z,86.62
2023-01-21T10:36:23.577Z,87.29
2023-01-21T10:38:31.162Z,87.16
2023-01-21T10:40:55.750Z,87.63
2023-01-21T10:43:07.757Z,87.53
2023-01-21T10:45:21.473Z,87.10
2023-01-21T10:47:41.619Z,87.28
2023-01-21T10:50:14.070Z,88.96
2023-01-21T10:52:21.609Z,89.11
2023-01-21T10:54:51.090Z,88.00
2023-01-21T10:57:11.807Z,87.21
2023-01-21T10:59:18.957Z,86.96
2023-01-21T11:01:29.338Z,86.18
2023-01-21T11:03:44.251Z,86.09
2023-01-21T11:05:48.483Z,86.47
2023-01-21T11:07:52.009Z,86.81
2023-01-21T11:09:53.810Z,86.62
2023-01-21T11:11:55.334Z,86.86
2023-01-21T11:13:57.191Z,86.83
2023-01-21T11:16:00.180Z,86.67
2023-01-21T11:18:22.385Z,87.33
2023-01-21T11:20:39.756Z,86.98
2023-01-21T11:22:45.505Z,86.97
2023-01-21T11:24:49.565Z,87.13
2023-01-21T11:26:59.740Z,87.13
2023-01-21T11:29:07.360Z,87.24
2023-01-21T11:31:14.746Z,87.65
2023-01-21T11:33:22.681Z,87.13
2023-01-21T11:35:24.381Z,87.74
2023-01-21T11:37:31.117Z,87.47
2023-01-21T11:39:36.908Z,87.19
2023-01-21T11:41:38.552Z,87.14
2023-01-21T11:43:44.584Z,86.79
2023-01-21T11:45:51.293Z,86.41
2023-01-21T11:47:54.274Z,86.90
2023-01-21T11:50:02.421Z,86.88
2023-01-21T11:52:15.332Z,86.77
2023-01-21T11:54:16.793Z,86.65
2023-01-21T11:56:18.314Z,86.98
2023-01-21T11:58:26.557Z,86.49
2023-01-21T12:00:28.738Z,86.77
2023-01-21T12:02:44.057Z,86.96
2023-01-21T12:05:09.283Z,87.16
2023-01-21T12:07:21.067Z,87.22
2023-01-21T12:09:22.813Z,86.80
2023-01-21T12:11:28.184Z,87.44
2023-01-21T12:13:35.547Z,86.79
2023-01-21T12:15:40.094Z,87.16
2023-01-21T12:17:57.196Z,87.37
2023-01-21T12:20:29.546Z,87.07
2023-01-21T12:22:36.623Z,86.52
2023-01-21T12:24:47.350Z,86.91
2023-01-21T12:26:52.924Z,87.09
2023-01-21T12:29:13.142Z,87.07
2023-01-21T12:31:25.954Z,87.39
2023-01-21T12:33:30.577Z,87.38
2023-01-21T12:35:41.170Z,87.51
2023-01-21T12:37:51.770Z,87.47
2023-01-21T12:39:56.503Z,87.74
2023-01-21T12:42:07.491Z,87.59
2023-01-21T12:44:31.359Z,87.54
2023-01-21T12:46:40.790Z,87.37
2023-01-21T12:49:05.526Z,87.64
2023-01-21T12:51:12.313Z,87.55
2023-01-21T12:53:38.623Z,87.81
2023-01-21T12:56:37.291Z,87.33
2023-01-21T12:58:49.033Z,86.98
2023-01-21T13:00:52.651Z,87.03
2023-01-21T13:03:01.746Z,86.96
2023-01-21T13:05:23.333Z,86.81
2023-01-21T13:07:43.081Z,87.52
2023-01-21T13:10:00.970Z,87.30
2023-01-21T13:12:15.875Z,87.43
2023-01-21T13:14:26.910Z,87.09
2023-01-21T13:16:29.741Z,87.48
2023-01-21T13:18:36.171Z,87.58
2023-01-21T13:20:42.706Z,87.45
2023-01-21T13:23:08.086Z,87.81
2023-01-21T13:25:28.395Z,87.32
2023-01-21T13:28:14.753Z,87.48
2023-01-21T13:30:40.628Z,87.73
2023-01-21T13:33:06.770Z,87.62
2023-01-21T13:35:42.531Z,87.42
2023-01-21T13:38:10.236Z,87.82
2023-01-21T13:40:49.047Z,87.67
2023-01-21T13:43:05.111Z,87.90
2023-01-21T13:45:54.802Z,87.84
2023-01-21T13:48:32.159Z,88.35
2023-01-21T13:51:05.262Z,88.02
2023-01-21T13:53:06.675Z,88.23
2023-01-21T13:55:29.907Z,88.16
2023-01-21T13:57:52.615Z,88.11
2023-01-21T13:59:57.596Z,88.34
2023-01-21T14:02:14.260Z,88.35
2023-01-21T14:04:35.196Z,88.30
2023-01-21T14:06:56.473Z,88.34
2023-01-21T14:09:33.140Z,88.40
2023-01-21T14:11:53.489Z,88.24
2023-01-21T14:14:13.637Z,88.42
2023-01-21T14:16:15.044Z,88.02
2023-01-21T14:18:21.834Z,87.64
2023-01-21T14:20:40.961Z,87.51
2023-01-21T14:22:51.403Z,88.12
2023-01-21T14:25:17.549Z,87.73
2023-01-21T14:27:26.743Z,87.54
2023-01-21T14:29:40.362Z,87.38
2023-01-21T14:31:51.406Z,86.87
2023-01-21T14:34:13.253Z,86.76
2023-01-21T14:36:20.952Z,87.03
2023-01-21T14:38:50.650Z,86.76
2023-01-21T14:41:08.083Z,86.87
2023-01-21T14:43:19.390Z,86.89
2023-01-21T14:45:24.745Z,86.93
2023-01-21T14:47:28.997Z,87.04
2023-01-21T14:49:41.825Z,87.15
2023-01-21T14:51:47.785Z,87.48
2023-01-21T14:53:52.165Z,87.41
2023-01-21T14:56:15.998Z,87.23
2023-01-21T14:58:27.833Z,87.58
2023-01-21T15:00:33.767Z,87.82
2023-01-21T15:03:15.533Z,87.84
2023-01-21T15:05:21.619Z,87.78
2023-01-21T15:07:28.491Z,88.45
2023-01-21T15:09:37.347Z,88.27
2023-01-21T15:11:40.342Z,88.26
2023-01-21T15:13:42.107Z,88.28
2023-01-21T15:16:15.339Z,88.65
2023-01-21T15:18:25.860Z,88.71
2023-01-21T15:20:42.290Z,89.07
2023-01-21T15:22:46.752Z,88.81
2023-01-21T15:25:14.367Z,89.02
2023-01-21T15:27:26.930Z,88.73
2023-01-21T15:29:37.493Z,89.15
2023-01-21T15:31:41.994Z,89.11
2023-01-21T15:33:48.185Z,89.07
2023-01-21T15:35:50.197Z,89.22
2023-01-21T15:37:59.314Z,89.35
2023-01-21T15:40:07.119Z,89.37
2023-01-21T15:42:36.053Z,89.70
2023-01-21T15:45:12.580Z,90.05
2023-01-21T15:47:24.727Z,89.63
2023-01-21T15:50:06.884Z,89.93
2023-01-21T15:52:33.237Z,89.83
2023-01-21T15:55:06.828Z,90.22
2023-01-21T15:57:35.684Z,90.31
2023-01-21T15:59:55.764Z,90.19
2023-01-21T16:02:19.905Z,90.10
2023-01-21T16:04:40.664Z,90.33
2023-01-21T16:06:58.160Z,90.75
2023-01-21T16:09:08.190Z,91.42
2023-01-21T16:11:45.295Z,91.28
2023-01-21T16:14:01.336Z,91.26
2023-01-21T16:16:08.724Z,91.50
2023-01-21T16:18:44.037Z,91.85
2023-01-21T16:20:50.177Z,92.26
2023-01-21T16:22:56.857Z,92.32
2023-01-21T16:25:07.639Z,92.14
2023-01-21T16:27:20.430Z,92.15
2023-01-21T16:29:21.940Z,92.35
2023-01-21T16:31:23.845Z,92.55
2023-01-21T16:33:25.529Z,92.77
2023-01-21T16:35:41.583Z,93.00
2023-01-21T16:37:44.224Z,93.36
2023-01-21T16:39:46.240Z,94.19
2023-01-21T16:42:01.243Z,94.38
2023-01-21T16:44:05.421Z,94.89
2023-01-21T16:46:13.040Z,95.07
2023-01-21T16:48:22.111Z,95.23
2023-01-21T16:50:26.603Z,95.32
2023-01-21T16:52:28.502Z,95.61
2023-01-21T16:54:32.281Z,95.11
2023-01-21T16:56:33.736Z,95.71
2023-01-21T16:58:35.318Z,95.33
2023-01-21T17:00:36.767Z,95.69
2023-01-21T17:02:38.350Z,95.82
2023-01-21T17:04:39.877Z,95.39
2023-01-21T17:06:44.277Z,95.63
2023-01-21T17:08:51.897Z,95.64
2023-01-21T17:11:00.412Z,96.30
2023-01-21T17:13:07.245Z,95.98
2023-01-21T17:15:29.702Z,95.63
2023-01-21T17:17:35.605Z,95.91
2023-01-21T17:19:40.395Z,95.94
2023-01-21T17:21:47.016Z,95.57
2023-01-21T17:23:54.892Z,95.87
2023-01-21T17:26:02.173Z,95.74
2023-01-21T17:28:28.613Z,95.91
2023-01-21T17:30:33.110Z,96.41
2023-01-21T17:32:34.690Z,96.84
2023-01-21T17:34:37.861Z,96.27
2023-01-21T17:36:42.058Z,96.55
2023-01-21T17:38:45.683Z,96.96
2023-01-21T17:41:03.687Z,97.06
2023-01-21T17:43:20.455Z,96.85
2023-01-21T17:45:30.163Z,97.11
2023-01-21T17:47:51.563Z,97.09
2023-01-21T17:50:16.915Z,97.67
2023-01-21T17:52:20.332Z,97.63
2023-01-21T17:54:27.497Z,97.59
2023-01-21T17:56:42.904Z,98.33
2023-01-21T18:00:47.960Z,98.19
2023-01-21T18:02:49.482Z,98.22
2023-01-21T18:04:51.050Z,98.48
2023-01-21T18:06:54.644Z,98.40
2023-01-21T18:09:05.885Z,98.88
2023-01-21T18:11:07.445Z,98.72
2023-01-21T18:13:15.707Z,98.25
2023-01-21T18:15:21.002Z,97.93
2023-01-21T18:17:24.872Z,98.51
2023-01-21T18:19:34.327Z,98.05
2023-01-21T18:21:35.797Z,98.15
2023-01-21T18:23:37.239Z,98.10
2023-01-21T18:25:39.671Z,97.71
2023-01-21T18:27:45.377Z,97.70
2023-01-21T18:29:47.959Z,97.61
2023-01-21T18:31:52.077Z,97.21
2023-01-21T18:33:53.643Z,97.11
2023-01-21T18:35:55.227Z,97.14
2023-01-21T18:37:56.728Z,96.64
2023-01-21T18:39:58.205Z,96.07
2023-01-21T18:41:59.698Z,95.70
2023-01-21T18:44:01.158Z,94.67
2023-01-21T18:46:02.748Z,94.37
2023-01-21T18:48:04.325Z,93.16
2023-01-21T18:50:06.320Z,92.91
2023-01-21T18:52:10.822Z,92.33
2023-01-21T18:54:13.988Z,91.94
2023-01-21T18:56:16.055Z,91.18
2023-01-21T18:58:17.738Z,90.46
2023-01-21T19:00:28.471Z,90.24
2023-01-21T19:02:30.019Z,89.70
2023-01-21T19:04:31.499Z,89.83
2023-01-21T19:06:32.962Z,89.71
2023-01-21T19:08:34.421Z,89.56
2023-01-21T19:10:35.860Z,89.25
2023-01-21T19:12:37.407Z,89.48
2023-01-21T19:14:38.993Z,89.10
2023-01-21T19:16:41.614Z,88.66
2023-01-21T19:18:43.108Z,88.45
2023-01-21T19:20:44.623Z,88.44
2023-01-21T19:22:46.645Z,88.30
2023-01-21T19:24:49.169Z,88.28
2023-01-21T19:26:50.647Z,87.95
2023-01-21T19:28:52.958Z,87.83
2023-01-21T19:30:58.432Z,88.30
2023-01-21T19:33:03.236Z,88.06
2023-01-21T19:35:05.164Z,88.07
2023-01-21T19:37:10.307Z,88.35
2023-01-21T19:39:19.475Z,88.15
2023-01-21T19:41:21.001Z,87.85
2023-01-21T19:43:22.885Z,87.90
2023-01-21T19:45:28.360Z,88.14
2023-01-21T19:47:30.135Z,87.72
2023-01-21T19:49:31.675Z,88.14
2023-01-21T19:51:33.123Z,87.99
2023-01-21T19:53:34.860Z,88.17
2023-01-21T19:55:37.154Z,88.22
2023-01-21T19:57:40.157Z,88.43
2023-01-21T19:59:45.107Z,88.15
2023-01-21T20:01:47.104Z,87.94
2023-01-21T20:03:59.616Z,88.58
2023-01-21T20:06:03.561Z,88.43
2023-01-21T20:08:05.631Z,88.49
2023-01-21T20:10:14.555Z,88.24
2023-01-21T20:12:16.123Z,88.31
2023-01-21T20:14:17.625Z,87.97
2023-01-21T20:16:21.036Z,88.36
2023-01-21T20:18:28.067Z,88.26
2023-01-21T20:20:31.761Z,88.15
2023-01-21T20:22:33.522Z,88.17
2023-01-21T20:24:34.970Z,88.44
2023-01-21T20:26:38.231Z,88.34
2023-01-21T20:28:44.354Z,88.68
2023-01-21T20:30:46.841Z,88.43
2023-01-21T20:32:49.065Z,87.95
2023-01-21T20:34:50.491Z,88.00
2023-01-21T20:36:52.312Z,88.15
2023-01-21T20:38:54.836Z,88.01
2023-01-21T20:40:57.835Z,87.88
2023-01-21T20:42:59.322Z,88.11
2023-01-21T20:45:00.766Z,88.43
2023-01-21T20:47:02.380Z,88.15
2023-01-21T20:49:03.857Z,88.35
2023-01-21T20:51:05.939Z,88.19
2023-01-21T20:53:10.055Z,88.61
2023-01-21T20:55:12.986Z,88.10
2023-01-21T20:57:14.476Z,88.12
2023-01-21T20:59:16.046Z,87.99
2023-01-21T21:01:19.833Z,88.58
2023-01-21T21:03:21.381Z,88.25
2023-01-21T21:05:23.953Z,88.31
2023-01-21T21:07:26.728Z,88.28
2023-01-21T21:09:28.759Z,88.37
2023-01-21T21:11:30.245Z,88.96
2023-01-21T21:13:31.689Z,88.33
2023-01-21T21:15:35.464Z,88.55
2023-01-21T21:17:37.015Z,88.67
2023-01-21T21:19:38.465Z,88.56
2023-01-21T21:21:39.931Z,89.01
2023-01-21T21:23:41.591Z,88.78
2023-01-21T21:25:45.134Z,88.63
2023-01-21T21:27:47.137Z,89.06
2023-01-21T21:29:48.581Z,88.62
2023-01-21T21:31:50.184Z,89.25
2023-01-21T21:33:52.088Z,89.12
2023-01-21T21:35:53.533Z,88.86
2023-01-21T21:37:57.251Z,89.01
2023-01-21T21:39:58.829Z,88.95
2023-01-21T21:42:18.580Z,89.12
2023-01-21T21:44:20.052Z,89.46
2023-01-21T21:46:39.870Z,89.19
2023-01-21T21:48:42.530Z,89.40
2023-01-21T21:50:44.070Z,89.06
2023-01-21T21:52:45.624Z,89.44
2023-01-21T21:54:47.125Z,89.67
2023-01-21T21:56:48.651Z,89.53
2023-01-21T21:58:51.101Z,89.52
2023-01-21T22:00:54.106Z,89.36
2023-01-21T22:03:02.491Z,89.07
2023-01-21T22:05:04.192Z,88.88
2023-01-21T22:07:05.713Z,89.17
2023-01-21T22:09:07.312Z,88.83
2023-01-21T22:11:12.733Z,88.78
2023-01-21T22:13:14.191Z,88.96
2023-01-21T22:15:16.017Z,89.22
2023-01-21T22:17:17.569Z,88.54
2023-01-21T22:19:19.132Z,88.71
2023-01-21T22:21:23.280Z,89.08
2023-01-21T22:23:24.955Z,88.51
2023-01-21T22:25:26.445Z,88.71
2023-01-21T22:27:27.923Z,88.80
2023-01-21T22:29:29.670Z,88.97
2023-01-21T22:31:32.624Z,89.04
2023-01-21T22:33:35.129Z,88.85
2023-01-21T22:35:39.579Z,88.97
2023-01-21T22:37:41.038Z,89.04
2023-01-21T22:39:42.499Z,88.72
2023-01-21T22:41:44.149Z,88.49
2023-01-21T22:43:48.385Z,88.65
2023-01-21T22:45:51.820Z,88.81
2023-01-21T22:47:53.321Z,89.21
2023-01-21T22:49:54.762Z,88.82
2023-01-21T22:51:56.292Z,89.07
2023-01-21T22:54:00.086Z,89.06
2023-01-21T22:56:04.545Z,88.91
2023-01-21T22:58:06.278Z,88.95
2023-01-21T23:00:11.338Z,88.58
2023-01-21T23:02:12.793Z,89.04
2023-01-21T23:04:15.735Z,89.08
2023-01-21T23:06:17.887Z,88.79
2023-01-21T23:08:19.856Z,88.69
2023-01-21T23:10:21.540Z,89.15
2023-01-21T23:12:23.049Z,88.93
2023-01-21T23:14:24.595Z,88.74
2023-01-21T23:16:26.129Z,89.21
2023-01-21T23:18:28.700Z,89.01
2023-01-21T23:20:30.162Z,88.60
2023-01-21T23:22:31.606Z,89.21
2023-01-21T23:24:34.087Z,88.98
2023-01-21T23:26:36.264Z,89.06
2023-01-21T23:28:37.909Z,88.38
2023-01-21T23:30:39.374Z,89.10
2023-01-21T23:32:41.107Z,88.64
2023-01-21T23:34:42.582Z,88.63
2023-01-21T23:36:44.101Z,88.92
2023-01-21T23:38:46.166Z,88.97
2023-01-21T23:40:47.638Z,88.78
2023-01-21T23:42:49.780Z,89.05
2023-01-21T23:44:51.401Z,89.05
2023-01-21T23:46:53.071Z,88.74
2023-01-21T23:48:54.695Z,88.78
2023-01-21T23:51:05.104Z,88.66
2023-01-21T23:53:06.598Z,88.82
2023-01-21T23:55:09.871Z,88.79
2023-01-21T23:57:12.251Z,88.77
2023-01-21T23:59:13.770Z,88.99
